Nearby METAR Reports

 

KISM - Kissimmee/Orland, Florida, USA
Distance from station: NW 19mi, 31km
Updated: 12/10/2018 2:51pm
Overcast
Overcast
 Wind from WNW
Wind: WNW 13 mph , 20 km/h, Gust: 20 mph , 31 km/h
Temperature: 57°F , 14°C
Dew Point: 46°F , 8°C
Humidity: 67%
Barometer: 30.08 inHg , 1018.6 hPa
Clouds: Overcast
Visibility: 10 miles , 16 km
Cloud details: Partly cloudy 2900 ft
Overcast 3400 ft
2018/12/10 19:51 KISM 101951Z 30011G17KT 10SM SCT029 OVC034 14/08 A3008 RMK AO2 PNO $
KMCO - Orlando, Florida, USA
Distance from station: NNW 23mi, 37km
Updated: 12/10/2018 2:53pm
Mostly cloudy
Mostly cloudy
 Wind from WNW
Wind: WNW 10 mph , 17 km/h
Temperature: 57°F , 14°C
Dew Point: 45°F , 7°C
Humidity: 63%
Barometer: 30.08 inHg , 1018.6 hPa
Clouds: Mostly cloudy
Visibility: 10 miles , 16 km
Cloud details: Partly cloudy 3000 ft
Mostly cloudy 3800 ft
2018/12/10 19:53 KMCO 101953Z 29009KT 10SM SCT030 BKN038 14/07 A3008 RMK AO2 SLP184 T01390072
 
KORL - Orlando, Florida, USA
Distance from station: NNW 32mi, 51km
Updated: 12/10/2018 2:53pm
Mostly cloudy
Mostly cloudy
 Wind from WNW
Wind: WNW 13 mph , 20 km/h, Gust: 20 mph , 31 km/h
Temperature: 57°F , 14°C
Dew Point: 45°F , 7°C
Humidity: 63%
Barometer: 30.07 inHg , 1018.3 hPa
Clouds: Mostly cloudy
Visibility: 10 miles , 16 km
Cloud details: Mostly cloudy 2900 ft
Mostly cloudy 3400 ft
2018/12/10 19:53 KORL 101953Z 29011G17KT 10SM BKN029 BKN034 14/07 A3007 RMK AO2 SLP189 T01390072
KMLB - Melbourne, Florida, USA
Distance from station: E 32mi, 52km
Updated: 12/10/2018 2:53pm
Overcast
Overcast
 Wind from WNW
Wind: WNW 16 mph , 26 km/h, Gust: 24 mph , 39 km/h
Temperature: 63°F , 17°C
Dew Point: 46°F , 8°C
Humidity: 56%
Barometer: 30.05 inHg , 1017.6 hPa
Clouds: Overcast
Visibility: 10 miles , 16 km
Cloud details: Overcast 3900 ft
2018/12/10 19:53 KMLB 101953Z AUTO 29014G21KT 10SM OVC039 17/08 A3005 RMK AO2 SLP176 T01670083
 
KGIF - Winter Haven, Florida, USA
Distance from station: W 35mi, 56km
Updated: 12/10/2018 2:53pm
Mostly cloudy
Mostly cloudy
 Wind from NW
Wind: NW 13 mph , 20 km/h, Gust: 20 mph , 31 km/h
Temperature: 57°F , 14°C
Dew Point: 46°F , 8°C
Humidity: 67%
Barometer: 30.09 inHg , 1019 hPa
Clouds: Mostly cloudy
Visibility: 10 miles , 16 km
Cloud details: Mostly cloudy 3100 ft
Mostly cloudy 3800 ft
2018/12/10 19:53 KGIF 101953Z AUTO 31011G17KT 10SM BKN031 BKN038 14/08 A3009 RMK AO2 SLP188 T01440083
KTIX - Titusville, Florida, USA
Distance from station: NE 35mi, 57km
Updated: 12/10/2018 2:47pm
Mostly cloudy
Mostly cloudy
 Wind from WNW
Wind: WNW 12 mph , 19 km/h
Temperature: 63°F , 17°C
Dew Point: 45°F , 7°C
Humidity: 52%
Barometer: 30.07 inHg , 1018.3 hPa
Clouds: Mostly cloudy
Visibility: 7 miles , 11 km
Cloud details: Mostly cloudy 3500 ft
2018/12/10 19:47 KTIX 101947Z 30010KT 7SM BKN035 17/07 A3007
 
KCOF - Patrick Afb/Coco, Florida, USA
Distance from station: ENE 36mi, 58km
Updated: 12/10/2018 1:56pm
Partly cloudy
Partly cloudy
 Wind from WNW
Wind: WNW 13 mph , 20 km/h
Temperature: 61°F , 16°C
Dew Point: 48°F , 9°C
Humidity: 63%
Barometer: 30.05 inHg , 1017.6 hPa
Clouds: Partly cloudy
Visibility: 10 miles , 16 km
Cloud details: Partly cloudy 3700 ft
2018/12/10 18:56 KCOF 101856Z AUTO 30011KT 10SM SCT037 16/09 A3005 RMK AO2 SLP180 T01640086 $
KBOW - Bartow Municipal, Florida, USA
Distance from station: WSW 38mi, 61km
Updated: 12/10/2018 2:45pm
Mostly cloudy
Mostly cloudy
 Wind from NW
Wind: NW 12 mph , 19 km/h
Temperature: 57°F , 14°C
Dew Point: 46°F , 8°C
Humidity: 67%
Barometer: 30.07 inHg , 1018.3 hPa
Clouds: Mostly cloudy
Visibility: 10 miles , 16 km
Cloud details: Mostly cloudy 2600 ft
2018/12/10 19:45 KBOW 101945Z 32010KT 10SM BKN026 14/08 A3007
 
KXMR - Cape Canaveral, Florida, USA
Distance from station: NE 44mi, 72km
Updated: 12/10/2018 1:56pm
Partly cloudy
Partly cloudy
 Wind from WNW
Wind: WNW 14 mph , 22 km/h, Gust: 24 mph , 39 km/h
Temperature: 61°F , 16°C
Dew Point: 45°F , 7°C
Humidity: 55%
Barometer: 30.04 inHg , 1017.3 hPa
Clouds: Partly cloudy
Visibility: 10 miles , 16 km
Cloud details: Partly cloudy 3700 ft
2018/12/10 18:56 KXMR 101856Z AUTO 30012G21KT 10SM SCT037 16/07 A3004 RMK AO2 SLP176 T01580070 $
KTTS - Nasa Shuttle Fcl, Florida, USA
Distance from station: NE 45mi, 72km
Updated: 12/10/2018 1:57pm
Partly cloudy
Partly cloudy
 Wind from W
Wind: W 14 mph , 22 km/h, Gust: 22 mph , 35 km/h
Temperature: 59°F , 15°C
Dew Point: 45°F , 7°C
Humidity: 59%
Barometer: 30.05 inHg , 1017.6 hPa
Clouds: Partly cloudy
Visibility: 10 miles , 16 km
Cloud details: Partly cloudy 3600 ft
2018/12/10 18:57 KTTS 101857Z AUTO 27012G19KT 10SM SCT036 15/07 A3005 RMK AO2 WSHFT 49 SLP180 $
 
KSFB - Sanford/Orlando, Florida, USA
Distance from station: N 45mi, 73km
Updated: 12/10/2018 2:53pm
Mostly cloudy
Mostly cloudy
 Wind from NW
Wind: NW 14 mph , 22 km/h
Temperature: 54°F , 12°C
Dew Point: 45°F , 7°C
Humidity: 72%
Barometer: 30.08 inHg , 1018.6 hPa
Clouds: Mostly cloudy
Visibility: 10 miles , 16 km
Cloud details: Mostly cloudy 2900 ft
Mostly cloudy 3500 ft
2018/12/10 19:53 KSFB 101953Z 31012KT 10SM BKN029 BKN035 12/07 A3008 RMK AO2 SLP184 T01220067
KLAL - Lakeland Regiona, Florida, USA
Distance from station: WSW 52mi, 84km
Updated: 12/10/2018 2:50pm
Mostly cloudy
Mostly cloudy
 Wind from NW
Wind: NW 10 mph , 17 km/h
Temperature: 57°F , 14°C
Dew Point: 46°F , 8°C
Humidity: 67%
Barometer: 30.08 inHg , 1018.6 hPa
Clouds: Mostly cloudy
Visibility: 10 miles , 16 km
Cloud details: Mostly cloudy 2900 ft
2018/12/10 19:50 KLAL 101950Z 31009KT 10SM BKN029 14/08 A3008
 
KVRB - Vero Beach, Florida, USA
Distance from station: SE 57mi, 91km
Updated: 12/10/2018 2:53pm
Mostly cloudy
Mostly cloudy
 Wind from W
Wind: W 15 mph , 24 km/h, Gust: 26 mph , 43 km/h
Temperature: 64°F , 18°C
Dew Point: 48°F , 9°C
Humidity: 56%
Barometer: 30.05 inHg , 1017.6 hPa
Clouds: Mostly cloudy
Visibility: 10 miles , 16 km
Cloud details: Mostly cloudy 4100 ft
2018/12/10 19:53 KVRB 101953Z 27013G23KT 10SM BKN041 18/09 A3005 RMK AO2 SLP175 T01830094
KZPH - Zephyrhills, Florida, USA
Distance from station: W 60mi, 96km
Updated: 12/10/2018 2:55pm
Mostly cloudy
Mostly cloudy
 Wind from NNW
Wind: NNW 9 mph , 15 km/h, Gust: 16 mph , 26 km/h
Temperature: 57°F , 14°C
Dew Point: 46°F , 8°C
Humidity: 67%
Barometer: 30.10 inHg , 1019.3 hPa
Clouds: Mostly cloudy
Visibility: 10 miles , 16 km
Cloud details: Partly cloudy 2600 ft
Mostly cloudy 3200 ft
2018/12/10 19:55 KZPH 101955Z AUTO 33008G14KT 10SM SCT026 BKN032 14/08 A3010 RMK AO2 T01350080
 
KPCM - Plant City Muni, Florida, USA
Distance from station: W 61mi, 98km
Updated: 12/10/2018 2:55pm
Mostly cloudy
Mostly cloudy
 Wind from WNW
Wind: WNW 9 mph , 15 km/h, Gust: 17 mph , 28 km/h
Temperature: 61°F , 16°C
Dew Point: 48°F , 9°C
Humidity: 63%
Barometer: 30.11 inHg , 1019.6 hPa
Clouds: Mostly cloudy
Visibility: 10 miles , 16 km
Cloud details: Partly cloudy 2700 ft
Partly cloudy 3500 ft
Mostly cloudy 5000 ft
2018/12/10 19:55 KPCM 101955Z AUTO 30008G15KT 275V335 10SM SCT027 SCT035 BKN050 16/09 A3011 RMK AO2
KLEE - Leesburg, Florida, USA
Distance from station: NW 62mi, 100km
Updated: 12/10/2018 2:53pm
Overcast
Overcast
 Wind from WNW
Wind: WNW 7 mph , 11 km/h
Temperature: 52°F , 11°C
Dew Point: 43°F , 6°C
Humidity: 72%
Barometer: 30.10 inHg , 1019.3 hPa
Clouds: Overcast
Visibility: 10 miles , 16 km
Cloud details: Mostly cloudy 2300 ft
Mostly cloudy 2800 ft
Overcast 3500 ft
2018/12/10 19:53 KLEE 101953Z 30006KT 10SM BKN023 BKN028 OVC035 11/06 A3010 RMK AO2 SLP192 T01110061
 
KOBE - Okeechobee Cty, Florida, USA
Distance from station: SSE 62mi, 100km
Updated: 12/10/2018 2:55pm
Partly cloudy
Partly cloudy
 Wind from WNW
Wind: WNW 13 mph , 20 km/h, Gust: 20 mph , 31 km/h
Temperature: 66°F , 19°C
Dew Point: 52°F , 11°C
Humidity: 60%
Barometer: 30.05 inHg , 1017.6 hPa
Clouds: Partly cloudy
Visibility: 10 miles , 16 km
Cloud details: Partly cloudy 3900 ft
Partly cloudy 4700 ft
2018/12/10 19:55 KOBE 101955Z AUTO 29011G17KT 10SM SCT039 SCT047 19/11 A3005 RMK AO2
KFPR - Fort Pierce, Florida, USA
Distance from station: SE 65mi, 104km
Updated: 12/10/2018 2:53pm
Mostly cloudy
Mostly cloudy
 
Temperature: 64°F , 18°C
Dew Point: 48°F , 9°C
Humidity: 56%
Barometer: 30.04 inHg , 1017.3 hPa
Clouds: Mostly cloudy
Visibility: 10 miles , 16 km
Cloud details: Mostly cloudy 3900 ft
2018/12/10 19:53 KFPR 101953Z 10SM BKN039 18/09 A3004 RMK AO2 SLP173 T01830094 $
 
KDED - Deland, Florida, USA
Distance from station: N 66mi, 106km
Updated: 12/10/2018 2:35pm
Overcast
Overcast
 Wind from WNW
Wind: WNW 10 mph , 17 km/h
Temperature: 50°F , 10°C
Wind Chill: 46°F , 8°C
Dew Point: 41°F , 5°C
Humidity: 71%
Barometer: 30.08 inHg , 1018.6 hPa
Clouds: Overcast
Visibility: 10 miles , 16 km
Cloud details: Overcast 2300 ft
2018/12/10 19:35 KDED 101935Z AUTO 29009KT 10SM OVC023 10/05 A3008 RMK AO2
KEVB - New Smyrna Beach, Florida, USA
Distance from station: NNE 66mi, 106km
Updated: 12/10/2018 2:47pm
Overcast
Overcast
 Wind from N
Wind: N 0 mph , 0 km/h
Temperature: 52°F , 11°C
Dew Point: 41°F , 5°C
Humidity: 67%
Barometer: 30.09 inHg , 1019 hPa
Clouds: Overcast
Visibility: 10 miles , 16 km
Cloud details: Overcast 2700 ft
2018/12/10 19:47 KEVB 101947Z 3015G23KT 10SM OVC027 11/05 A3009